Portada
METAR-TAF:

METAR-TAF

Aeroports :

Urgench, Uzbekistan

latitud: 41-35N, longitud: 060-38-42E, altitud: 98 m

Observació

L'informe es va fer fa 42 minuts, a les 16:30 UTC
Vent 6 kt del Nord-Oest
Temperatura 14°C
Humitat 58%
Pressió 1016 hPa
Visibilitat 10 km o més
sense núvols per sota de 1500 mi sense presència de cumulonimbus.

METAR: UTNU 201630Z 31006KT CAVOK 14/06 Q1016 R31/CLRD70 NOSIG

Hora: 22:12 (17:12 UTC)

Pronòstic

L'informe es va fer fa 6 hores i 12 minuts, a les 11:00 UTC
Pronòstic vàlid del 20 a les 12 UTC al 21 a les 12 UTC
Vent 10 kt del Oest/Nord-Oest amb ràfegues de 20 kt
Visibilitat: 7000 m
Temporalment
l' 20 a les 12 UTC al 20 a les 18 UTC
Vent 16 kt del Nord/Nord-Oest amb ràfegues de 26 kt
Núvols disperses a una alçada de 5000 ft
Núvols disperses a una alçada de 10000 ft

TAF: UTNU 201100Z 2012/2112 30010G20KT 7000 NSC TEMPO 2012/2018 33016G26KT SCT050 SCT100

Observacions i pronòstics meteorològics de més de 4000 aeroports (METAR i TAF).

Les estacions disponibles són els punts grocs i vermells al mapa.

Posi el ratolí al punt desitjat per veure el nom de l'estació.

Feu clic per veure les observacions i els pronòstics meteorològics.

Per canviar el mapa: feu clic els botons verds amb una creu de color negre per apropar; al botó verd amb un guió per allunyar la imatge; o en les fletxes verdes per a mapes adjacents.


METAR-TAF: